sensor_id;sensor_type;location;lat;lon;timestamp;pressure;altitude;pressure_sealevel;temperature;humidity
26087;BME280;13851;43.434;28.338;2023-05-17T00:00:52;99242.13;;;13.50;100.00
26087;BME280;13851;43.434;28.338;2023-05-17T00:03:17;99639.63;;;15.78;100.00
26087;BME280;13851;43.434;28.338;2023-05-17T00:05:43;99387.81;;;14.23;100.00
26087;BME280;13851;43.434;28.338;2023-05-17T00:08:09;99651.72;;;15.83;100.00
26087;BME280;13851;43.434;28.338;2023-05-17T00:10:34;99325.69;;;13.82;100.00
26087;BME280;13851;43.434;28.338;2023-05-17T00:13:00;99626.53;;;15.60;100.00
26087;BME280;13851;43.434;28.338;2023-05-17T00:15:25;99660.41;;;15.87;100.00
26087;BME280;13851;43.434;28.338;2023-05-17T00:17:51;99661.50;;;15.79;100.00
26087;BME280;13851;43.434;28.338;2023-05-17T00:20:16;99654.19;;;15.53;100.00
26087;BME280;13851;43.434;28.338;2023-05-17T00:22:42;99662.59;;;15.78;100.00
26087;BME280;13851;43.434;28.338;2023-05-17T00:25:10;99670.25;;;15.70;100.00
26087;BME280;13851;43.434;28.338;2023-05-17T00:27:35;99676.31;;;15.40;100.00
26087;BME280;13851;43.434;28.338;2023-05-17T00:30:01;99659.66;;;15.60;100.00
26087;BME280;13851;43.434;28.338;2023-05-17T00:32:26;99604.66;;;15.14;100.00
26087;BME280;13851;43.434;28.338;2023-05-17T00:34:52;99642.38;;;15.33;100.00
26087;BME280;13851;43.434;28.338;2023-05-17T00:37:17;99644.25;;;15.39;100.00
26087;BME280;13851;43.434;28.338;2023-05-17T00:39:43;99642.38;;;15.33;100.00
26087;BME280;13851;43.434;28.338;2023-05-17T00:42:10;99675.66;;;15.51;100.00
26087;BME280;13851;43.434;28.338;2023-05-17T00:44:35;99657.84;;;15.34;100.00
26087;BME280;13851;43.434;28.338;2023-05-17T00:47:01;99314.31;;;13.19;100.00
26087;BME280;13851;43.434;28.338;2023-05-17T00:49:27;99636.97;;;15.00;100.00
26087;BME280;13851;43.434;28.338;2023-05-17T00:51:54;99719.66;;;15.33;100.00
26087;BME280;13851;43.434;28.338;2023-05-17T00:54:20;99653.13;;;14.83;100.00
26087;BME280;13851;43.434;28.338;2023-05-17T00:56:47;99681.88;;;15.27;100.00
26087;BME280;13851;43.434;28.338;2023-05-17T00:59:16;99684.63;;;15.33;100.00
26087;BME280;13851;43.434;28.338;2023-05-17T01:01:42;99609.81;;;14.97;100.00
26087;BME280;13851;43.434;28.338;2023-05-17T01:04:08;99616.56;;;15.07;100.00
26087;BME280;13851;43.434;28.338;2023-05-17T01:06:35;99673.34;;;15.42;100.00
26087;BME280;13851;43.434;28.338;2023-05-17T01:09:01;99725.59;;;15.37;100.00
26087;BME280;13851;43.434;28.338;2023-05-17T01:16:55;99581.81;;;14.93;100.00
26087;BME280;13851;43.434;28.338;2023-05-17T01:19:52;99607.19;;;15.22;100.00
26087;BME280;13851;43.434;28.338;2023-05-17T01:22:30;99613.34;;;15.17;100.00
26087;BME280;13851;43.434;28.338;2023-05-17T01:25:18;99587.06;;;15.08;100.00
26087;BME280;13851;43.434;28.338;2023-05-17T01:27:49;99675.00;;;15.49;100.00
26087;BME280;13851;43.434;28.338;2023-05-17T01:30:18;99637.44;;;15.48;100.00
26087;BME280;13851;43.434;28.338;2023-05-17T01:32:45;99652.66;;;15.64;100.00
26087;BME280;13851;43.434;28.338;2023-05-17T01:35:11;99613.84;;;15.52;100.00
26087;BME280;13851;43.434;28.338;2023-05-17T01:37:37;99294.94;;;13.85;100.00
26087;BME280;13851;43.434;28.338;2023-05-17T01:40:04;99640.78;;;15.95;100.00
26087;BME280;13851;43.434;28.338;2023-05-17T01:42:32;99633.50;;;16.07;100.00
26087;BME280;13851;43.434;28.338;2023-05-17T01:47:51;99572.34;;;15.72;100.00
26087;BME280;13851;43.434;28.338;2023-05-17T01:50:23;99578.25;;;16.07;100.00
26087;BME280;13851;43.434;28.338;2023-05-17T01:52:52;99616.56;;;16.47;100.00
26087;BME280;13851;43.434;28.338;2023-05-17T01:58:07;99591.72;;;16.66;100.00
26087;BME280;13851;43.434;28.338;2023-05-17T02:00:35;99547.84;;;16.07;100.00
26087;BME280;13851;43.434;28.338;2023-05-17T02:03:01;99590.00;;;16.46;100.00
26087;BME280;13851;43.434;28.338;2023-05-17T02:05:27;99538.97;;;16.24;100.00
26087;BME280;13851;43.434;28.338;2023-05-17T02:07:52;99517.16;;;16.16;100.00
26087;BME280;13851;43.434;28.338;2023-05-17T02:10:21;99574.50;;;16.45;100.00
26087;BME280;13851;43.434;28.338;2023-05-17T02:12:46;99343.28;;;15.02;100.00
26087;BME280;13851;43.434;28.338;2023-05-17T02:15:12;99235.97;;;14.38;100.00
26087;BME280;13851;43.434;28.338;2023-05-17T02:17:38;99534.31;;;15.99;100.00
26087;BME280;13851;43.434;28.338;2023-05-17T02:20:06;99446.34;;;15.46;100.00
26087;BME280;13851;43.434;28.338;2023-05-17T02:22:32;99229.72;;;14.24;100.00
26087;BME280;13851;43.434;28.338;2023-05-17T02:24:58;99544.66;;;16.29;100.00
26087;BME280;13851;43.434;28.338;2023-05-17T02:27:23;99538.38;;;16.40;100.00
26087;BME280;13851;43.434;28.338;2023-05-17T02:29:49;99274.06;;;14.54;100.00
26087;BME280;13851;43.434;28.338;2023-05-17T02:32:14;99552.31;;;16.52;100.00
26087;BME280;13851;43.434;28.338;2023-05-17T02:34:42;99478.63;;;16.21;100.00
26087;BME280;13851;43.434;28.338;2023-05-17T02:37:08;99411.66;;;15.82;100.00
26087;BME280;13851;43.434;28.338;2023-05-17T02:39:33;99529.53;;;16.31;100.00
26087;BME280;13851;43.434;28.338;2023-05-17T02:41:59;99560.91;;;16.62;100.00
26087;BME280;13851;43.434;28.338;2023-05-17T02:44:24;99540.31;;;16.58;100.00
26087;BME280;13851;43.434;28.338;2023-05-17T02:46:50;99553.41;;;16.69;100.00
26087;BME280;13851;43.434;28.338;2023-05-17T02:49:15;99174.06;;;14.40;100.00
26087;BME280;13851;43.434;28.338;2023-05-17T02:51:41;99554.25;;;16.70;100.00
26087;BME280;13851;43.434;28.338;2023-05-17T02:54:06;99462.97;;;16.15;100.00
26087;BME280;13851;43.434;28.338;2023-05-17T02:56:32;99281.53;;;15.03;100.00
26087;BME280;13851;43.434;28.338;2023-05-17T02:58:58;99231.34;;;14.70;100.00
26087;BME280;13851;43.434;28.338;2023-05-17T03:01:26;99598.63;;;16.56;100.00
26087;BME280;13851;43.434;28.338;2023-05-17T03:03:51;99536.22;;;16.42;100.00
26087;BME280;13851;43.434;28.338;2023-05-17T03:06:17;99562.25;;;16.34;100.00
26087;BME280;13851;43.434;28.338;2023-05-17T03:08:42;99568.88;;;16.52;100.00
26087;BME280;13851;43.434;28.338;2023-05-17T03:11:08;99585.72;;;16.50;100.00
26087;BME280;13851;43.434;28.338;2023-05-17T03:13:33;99572.06;;;16.55;100.00
26087;BME280;13851;43.434;28.338;2023-05-17T03:15:59;99581.72;;;16.46;100.00
26087;BME280;13851;43.434;28.338;2023-05-17T03:18:24;99534.28;;;16.24;100.00
26087;BME280;13851;43.434;28.338;2023-05-17T03:20:50;99571.28;;;16.48;100.00
26087;BME280;13851;43.434;28.338;2023-05-17T03:23:16;99536.72;;;16.39;100.00
26087;BME280;13851;43.434;28.338;2023-05-17T03:25:41;99523.09;;;16.37;100.00
26087;BME280;13851;43.434;28.338;2023-05-17T03:28:07;99605.13;;;16.69;100.00
26087;BME280;13851;43.434;28.338;2023-05-17T03:30:32;99587.44;;;16.70;100.00
26087;BME280;13851;43.434;28.338;2023-05-17T03:32:58;99577.66;;;16.74;100.00
26087;BME280;13851;43.434;28.338;2023-05-17T03:35:23;99563.00;;;16.67;100.00
26087;BME280;13851;43.434;28.338;2023-05-17T03:37:49;99527.56;;;16.57;100.00
26087;BME280;13851;43.434;28.338;2023-05-17T03:40:17;99521.34;;;16.61;100.00
26087;BME280;13851;43.434;28.338;2023-05-17T03:42:45;99539.34;;;16.71;100.00
26087;BME280;13851;43.434;28.338;2023-05-17T03:45:11;99229.69;;;15.12;100.00
26087;BME280;13851;43.434;28.338;2023-05-17T03:47:37;99593.78;;;17.13;100.00
26087;BME280;13851;43.434;28.338;2023-05-17T03:50:03;99182.53;;;14.95;100.00
26087;BME280;13851;43.434;28.338;2023-05-17T03:52:28;99588.22;;;17.32;100.00
26087;BME280;13851;43.434;28.338;2023-05-17T03:54:54;99527.97;;;17.15;100.00
26087;BME280;13851;43.434;28.338;2023-05-17T03:57:20;99605.38;;;17.40;100.00
26087;BME280;13851;43.434;28.338;2023-05-17T03:59:46;99594.38;;;17.64;100.00
26087;BME280;13851;43.434;28.338;2023-05-17T04:02:14;99223.88;;;15.20;100.00
26087;BME280;13851;43.434;28.338;2023-05-17T04:04:40;99356.13;;;16.08;100.00
26087;BME280;13851;43.434;28.338;2023-05-17T04:07:05;99559.88;;;17.48;100.00
26087;BME280;13851;43.434;28.338;2023-05-17T04:09:31;99232.88;;;15.52;100.00
26087;BME280;13851;43.434;28.338;2023-05-17T04:11:59;99600.13;;;17.81;100.00
26087;BME280;13851;43.434;28.338;2023-05-17T04:17:00;99514.19;;;17.27;100.00
26087;BME280;13851;43.434;28.338;2023-05-17T04:19:26;99536.38;;;17.39;100.00
26087;BME280;13851;43.434;28.338;2023-05-17T04:21:51;99593.56;;;17.63;100.00
26087;BME280;13851;43.434;28.338;2023-05-17T04:24:17;99629.69;;;17.87;100.00
26087;BME280;13851;43.434;28.338;2023-05-17T04:26:42;99253.56;;;15.43;100.00
26087;BME280;13851;43.434;28.338;2023-05-17T04:29:08;99620.66;;;17.25;100.00
26087;BME280;13851;43.434;28.338;2023-05-17T04:31:34;99620.97;;;17.53;100.00
26087;BME280;13851;43.434;28.338;2023-05-17T04:33:59;99418.81;;;16.26;100.00
26087;BME280;13851;43.434;28.338;2023-05-17T04:36:25;99630.09;;;17.72;100.00
26087;BME280;13851;43.434;28.338;2023-05-17T04:38:50;99671.97;;;17.82;100.00
26087;BME280;13851;43.434;28.338;2023-05-17T04:41:16;99586.56;;;17.31;100.00
26087;BME280;13851;43.434;28.338;2023-05-17T04:43:42;99574.63;;;17.30;100.00
26087;BME280;13851;43.434;28.338;2023-05-17T04:46:07;99434.41;;;16.21;100.00
26087;BME280;13851;43.434;28.338;2023-05-17T04:48:33;99321.66;;;15.49;100.00
26087;BME280;13851;43.434;28.338;2023-05-17T04:51:02;99642.34;;;17.83;100.00
26087;BME280;13851;43.434;28.338;2023-05-17T04:53:29;99334.16;;;15.95;100.00
26087;BME280;13851;43.434;28.338;2023-05-17T04:55:55;99516.50;;;17.12;100.00
26087;BME280;13851;43.434;28.338;2023-05-17T04:58:21;99649.53;;;18.02;100.00
26087;BME280;13851;43.434;28.338;2023-05-17T05:00:48;99666.88;;;18.09;100.00
26087;BME280;13851;43.434;28.338;2023-05-17T05:03:14;99647.03;;;18.12;100.00
26087;BME280;13851;43.434;28.338;2023-05-17T05:05:40;99584.47;;;17.75;100.00
26087;BME280;13851;43.434;28.338;2023-05-17T05:08:05;99654.97;;;18.21;100.00
26087;BME280;13851;43.434;28.338;2023-05-17T05:10:31;99557.09;;;17.66;100.00
26087;BME280;13851;43.434;28.338;2023-05-17T05:12:56;99662.44;;;18.08;100.00
26087;BME280;13851;43.434;28.338;2023-05-17T05:15:23;99642.59;;;18.23;100.00
26087;BME280;13851;43.434;28.338;2023-05-17T05:17:48;99571.53;;;17.68;100.00
26087;BME280;13851;43.434;28.338;2023-05-17T05:20:14;99385.94;;;16.55;100.00
26087;BME280;13851;43.434;28.338;2023-05-17T05:22:39;99628.72;;;17.81;100.00
26087;BME280;13851;43.434;28.338;2023-05-17T05:25:05;99470.31;;;17.12;100.00
26087;BME280;13851;43.434;28.338;2023-05-17T05:27:31;99553.38;;;17.73;100.00
26087;BME280;13851;43.434;28.338;2023-05-17T05:29:56;99612.53;;;18.08;100.00
26087;BME280;13851;43.434;28.338;2023-05-17T05:32:22;99656.78;;;18.15;100.00
26087;BME280;13851;43.434;28.338;2023-05-17T05:34:47;99686.91;;;18.53;100.00
26087;BME280;13851;43.434;28.338;2023-05-17T05:37:13;99628.34;;;18.31;100.00
26087;BME280;13851;43.434;28.338;2023-05-17T05:39:39;99652.22;;;18.74;100.00
26087;BME280;13851;43.434;28.338;2023-05-17T05:42:05;99309.69;;;16.77;100.00
26087;BME280;13851;43.434;28.338;2023-05-17T05:44:30;99395.13;;;17.27;100.00
26087;BME280;13851;43.434;28.338;2023-05-17T05:46:56;99517.91;;;18.16;100.00
26087;BME280;13851;43.434;28.338;2023-05-17T05:49:21;99621.69;;;18.86;100.00
26087;BME280;13851;43.434;28.338;2023-05-17T05:51:47;99582.47;;;18.70;100.00
26087;BME280;13851;43.434;28.338;2023-05-17T05:54:12;99623.00;;;18.95;100.00
26087;BME280;13851;43.434;28.338;2023-05-17T05:56:38;99236.94;;;16.88;100.00
26087;BME280;13851;43.434;28.338;2023-05-17T05:59:03;99596.91;;;19.19;100.00
26087;BME280;13851;43.434;28.338;2023-05-17T06:01:30;99367.75;;;17.84;100.00
26087;BME280;13851;43.434;28.338;2023-05-17T06:03:55;99292.84;;;17.32;100.00
26087;BME280;13851;43.434;28.338;2023-05-17T06:06:21;99625.84;;;19.23;100.00
26087;BME280;13851;43.434;28.338;2023-05-17T06:08:47;99651.91;;;19.46;100.00
26087;BME280;13851;43.434;28.338;2023-05-17T06:11:12;99647.13;;;19.06;100.00
26087;BME280;13851;43.434;28.338;2023-05-17T06:13:38;99649.66;;;19.19;100.00
26087;BME280;13851;43.434;28.338;2023-05-17T06:16:05;99378.25;;;17.94;100.00
26087;BME280;13851;43.434;28.338;2023-05-17T06:18:31;99355.72;;;17.79;100.00
26087;BME280;13851;43.434;28.338;2023-05-17T06:20:56;99374.16;;;17.97;100.00
26087;BME280;13851;43.434;28.338;2023-05-17T06:23:22;99456.03;;;18.51;100.00
26087;BME280;13851;43.434;28.338;2023-05-17T06:25:48;99506.47;;;18.72;100.00
26087;BME280;13851;43.434;28.338;2023-05-17T06:28:13;99623.06;;;19.23;100.00
26087;BME280;13851;43.434;28.338;2023-05-17T06:30:39;99535.16;;;18.89;100.00
26087;BME280;13851;43.434;28.338;2023-05-17T06:33:04;99413.56;;;17.99;100.00
26087;BME280;13851;43.434;28.338;2023-05-17T06:35:30;99413.06;;;17.90;100.00
26087;BME280;13851;43.434;28.338;2023-05-17T06:37:55;99652.19;;;19.21;100.00
26087;BME280;13851;43.434;28.338;2023-05-17T06:40:21;99655.03;;;19.61;100.00
26087;BME280;13851;43.434;28.338;2023-05-17T06:42:46;99362.59;;;17.88;100.00
26087;BME280;13851;43.434;28.338;2023-05-17T06:45:12;99660.59;;;19.61;100.00
26087;BME280;13851;43.434;28.338;2023-05-17T06:47:37;99149.94;;;16.49;100.00
26087;BME280;13851;43.434;28.338;2023-05-17T06:50:03;99656.56;;;19.69;100.00
26087;BME280;13851;43.434;28.338;2023-05-17T06:52:29;99597.22;;;19.35;100.00
26087;BME280;13851;43.434;28.338;2023-05-17T06:54:55;99392.09;;;17.94;100.00
26087;BME280;13851;43.434;28.338;2023-05-17T06:57:20;99625.22;;;19.33;100.00
26087;BME280;13851;43.434;28.338;2023-05-17T06:59:46;99673.38;;;19.62;100.00
26087;BME280;13851;43.434;28.338;2023-05-17T07:02:11;99399.19;;;17.90;100.00
26087;BME280;13851;43.434;28.338;2023-05-17T07:04:37;99132.72;;;16.35;100.00
26087;BME280;13851;43.434;28.338;2023-05-17T07:07:02;99664.22;;;19.50;100.00
26087;BME280;13851;43.434;28.338;2023-05-17T07:09:28;99261.53;;;16.97;100.00
26087;BME280;13851;43.434;28.338;2023-05-17T07:11:53;99658.22;;;19.30;100.00
26087;BME280;13851;43.434;28.338;2023-05-17T07:14:19;99651.34;;;19.09;100.00
26087;BME280;13851;43.434;28.338;2023-05-17T07:16:44;99692.88;;;19.27;100.00
26087;BME280;13851;43.434;28.338;2023-05-17T07:19:10;99664.16;;;19.10;100.00
26087;BME280;13851;43.434;28.338;2023-05-17T07:21:35;99319.19;;;17.35;100.00
26087;BME280;13851;43.434;28.338;2023-05-17T07:24:01;99275.34;;;17.08;100.00
26087;BME280;13851;43.434;28.338;2023-05-17T07:26:26;99235.66;;;16.91;100.00
26087;BME280;13851;43.434;28.338;2023-05-17T07:28:52;99689.63;;;19.82;100.00
26087;BME280;13851;43.434;28.338;2023-05-17T07:31:17;99646.84;;;19.31;100.00
26087;BME280;13851;43.434;28.338;2023-05-17T07:33:43;99677.06;;;19.80;100.00
26087;BME280;13851;43.434;28.338;2023-05-17T07:36:09;99683.78;;;19.95;100.00
26087;BME280;13851;43.434;28.338;2023-05-17T07:38:34;99656.72;;;19.39;100.00
26087;BME280;13851;43.434;28.338;2023-05-17T07:41:00;99671.59;;;19.85;100.00
26087;BME280;13851;43.434;28.338;2023-05-17T07:43:26;99332.00;;;17.83;100.00
26087;BME280;13851;43.434;28.338;2023-05-17T07:45:51;99727.34;;;20.18;100.00
26087;BME280;13851;43.434;28.338;2023-05-17T07:48:17;99179.69;;;16.77;100.00
26087;BME280;13851;43.434;28.338;2023-05-17T07:50:43;99684.03;;;20.22;100.00
26087;BME280;13851;43.434;28.338;2023-05-17T07:53:09;99674.41;;;20.13;100.00
26087;BME280;13851;43.434;28.338;2023-05-17T07:55:34;99292.78;;;18.14;100.00
26087;BME280;13851;43.434;28.338;2023-05-17T07:58:00;99431.84;;;18.87;100.00
26087;BME280;13851;43.434;28.338;2023-05-17T08:00:26;99644.91;;;20.12;100.00
26087;BME280;13851;43.434;28.338;2023-05-17T08:02:51;99713.50;;;20.52;100.00
26087;BME280;13851;43.434;28.338;2023-05-17T08:05:17;99385.28;;;18.89;100.00
26087;BME280;13851;43.434;28.338;2023-05-17T08:07:42;99716.66;;;20.72;100.00
26087;BME280;13851;43.434;28.338;2023-05-17T08:10:08;99649.00;;;20.72;100.00
26087;BME280;13851;43.434;28.338;2023-05-17T08:12:33;99655.94;;;20.69;100.00
26087;BME280;13851;43.434;28.338;2023-05-17T08:14:59;99667.25;;;20.80;100.00
26087;BME280;13851;43.434;28.338;2023-05-17T08:17:25;99694.38;;;21.40;100.00
26087;BME280;13851;43.434;28.338;2023-05-17T08:19:50;99228.16;;;18.71;100.00
26087;BME280;13851;43.434;28.338;2023-05-17T08:22:16;99693.69;;;21.33;100.00
26087;BME280;13851;43.434;28.338;2023-05-17T08:24:41;99424.59;;;19.43;100.00
26087;BME280;13851;43.434;28.338;2023-05-17T08:27:09;99372.66;;;19.43;100.00
26087;BME280;13851;43.434;28.338;2023-05-17T08:29:35;99521.19;;;20.48;100.00
26087;BME280;13851;43.434;28.338;2023-05-17T08:32:01;99611.81;;;21.17;100.00
26087;BME280;13851;43.434;28.338;2023-05-17T08:34:27;99665.16;;;21.25;100.00
26087;BME280;13851;43.434;28.338;2023-05-17T08:36:52;99634.81;;;21.29;100.00
26087;BME280;13851;43.434;28.338;2023-05-17T08:39:18;99644.91;;;21.52;100.00
26087;BME280;13851;43.434;28.338;2023-05-17T08:41:46;99629.09;;;21.36;100.00
26087;BME280;13851;43.434;28.338;2023-05-17T08:44:13;99641.19;;;21.24;100.00
26087;BME280;13851;43.434;28.338;2023-05-17T08:46:39;99665.91;;;21.60;100.00
26087;BME280;13851;43.434;28.338;2023-05-17T08:49:08;99661.22;;;21.43;100.00
26087;BME280;13851;43.434;28.338;2023-05-17T08:51:37;99608.53;;;21.03;100.00
26087;BME280;13851;43.434;28.338;2023-05-17T08:54:04;99687.75;;;21.29;100.00
26087;BME280;13851;43.434;28.338;2023-05-17T08:56:34;99688.78;;;21.23;100.00
26087;BME280;13851;43.434;28.338;2023-05-17T08:59:01;99694.38;;;21.06;100.00
26087;BME280;13851;43.434;28.338;2023-05-17T09:01:29;99626.47;;;20.90;100.00
26087;BME280;13851;43.434;28.338;2023-05-17T09:03:55;99647.59;;;21.08;100.00
26087;BME280;13851;43.434;28.338;2023-05-17T09:06:22;99087.47;;;17.76;100.00
26087;BME280;13851;43.434;28.338;2023-05-17T09:08:54;99677.63;;;21.23;100.00
26087;BME280;13851;43.434;28.338;2023-05-17T09:11:30;99595.88;;;20.73;100.00
26087;BME280;13851;43.434;28.338;2023-05-17T09:14:01;99567.34;;;20.83;100.00
26087;BME280;13851;43.434;28.338;2023-05-17T09:16:30;99671.16;;;21.56;100.00
26087;BME280;13851;43.434;28.338;2023-05-17T09:18:57;99628.56;;;21.61;100.00
26087;BME280;13851;43.434;28.338;2023-05-17T09:21:24;99649.59;;;21.95;100.00
26087;BME280;13851;43.434;28.338;2023-05-17T09:23:51;99538.81;;;21.37;100.00
26087;BME280;13851;43.434;28.338;2023-05-17T09:26:17;99306.13;;;20.09;100.00
26087;BME280;13851;43.434;28.338;2023-05-17T09:28:43;99587.97;;;21.97;100.00
26087;BME280;13851;43.434;28.338;2023-05-17T09:31:09;99637.47;;;22.34;100.00
26087;BME280;13851;43.434;28.338;2023-05-17T09:33:48;99643.66;;;22.41;100.00
26087;BME280;13851;43.434;28.338;2023-05-17T09:36:18;99637.97;;;22.30;100.00
26087;BME280;13851;43.434;28.338;2023-05-17T09:38:51;99630.81;;;22.40;100.00
26087;BME280;13851;43.434;28.338;2023-05-17T09:41:17;99605.22;;;21.94;100.00
26087;BME280;13851;43.434;28.338;2023-05-17T09:43:43;99621.47;;;21.97;100.00
26087;BME280;13851;43.434;28.338;2023-05-17T09:46:08;99317.13;;;20.43;100.00
26087;BME280;13851;43.434;28.338;2023-05-17T09:48:37;99614.22;;;22.23;100.00
26087;BME280;13851;43.434;28.338;2023-05-17T09:51:04;99576.38;;;22.10;100.00
26087;BME280;13851;43.434;28.338;2023-05-17T09:53:32;99565.88;;;22.17;100.00
26087;BME280;13851;43.434;28.338;2023-05-17T09:56:03;99606.31;;;22.47;100.00
26087;BME280;13851;43.434;28.338;2023-05-17T09:58:34;99477.81;;;21.67;100.00
26087;BME280;13851;43.434;28.338;2023-05-17T10:01:04;99614.00;;;22.67;100.00
26087;BME280;13851;43.434;28.338;2023-05-17T10:03:32;99418.31;;;21.24;100.00
26087;BME280;13851;43.434;28.338;2023-05-17T10:06:04;99299.91;;;20.68;100.00
26087;BME280;13851;43.434;28.338;2023-05-17T10:08:31;99586.13;;;22.72;100.00
26087;BME280;13851;43.434;28.338;2023-05-17T10:11:00;99600.47;;;22.86;100.00
26087;BME280;13851;43.434;28.338;2023-05-17T10:13:33;99627.78;;;22.78;100.00
26087;BME280;13851;43.434;28.338;2023-05-17T10:15:59;99273.75;;;20.96;100.00
26087;BME280;13851;43.434;28.338;2023-05-17T10:18:25;99273.38;;;20.87;100.00
26087;BME280;13851;43.434;28.338;2023-05-17T10:20:53;99573.91;;;22.78;100.00
26087;BME280;13851;43.434;28.338;2023-05-17T10:23:19;99170.41;;;20.33;100.00
26087;BME280;13851;43.434;28.338;2023-05-17T10:25:46;99260.56;;;20.86;100.00
26087;BME280;13851;43.434;28.338;2023-05-17T10:28:15;99565.19;;;22.74;100.00
26087;BME280;13851;43.434;28.338;2023-05-17T10:30:42;99545.06;;;22.72;100.00
26087;BME280;13851;43.434;28.338;2023-05-17T10:33:08;99259.28;;;20.99;100.00
26087;BME280;13851;43.434;28.338;2023-05-17T10:35:37;99545.81;;;22.52;100.00
26087;BME280;13851;43.434;28.338;2023-05-17T10:38:02;99403.72;;;21.71;100.00
26087;BME280;13851;43.434;28.338;2023-05-17T10:40:28;99588.09;;;22.76;100.00
26087;BME280;13851;43.434;28.338;2023-05-17T10:42:55;99195.16;;;20.57;100.00
26087;BME280;13851;43.434;28.338;2023-05-17T10:45:23;99523.75;;;22.56;100.00
26087;BME280;13851;43.434;28.338;2023-05-17T10:47:50;99503.03;;;22.47;100.00
26087;BME280;13851;43.434;28.338;2023-05-17T10:50:24;99237.88;;;20.72;100.00
26087;BME280;13851;43.434;28.338;2023-05-17T10:52:51;99503.56;;;22.44;100.00
26087;BME280;13851;43.434;28.338;2023-05-17T10:55:22;99471.63;;;22.24;100.00
26087;BME280;13851;43.434;28.338;2023-05-17T11:00:38;99306.66;;;21.31;100.00
26087;BME280;13851;43.434;28.338;2023-05-17T11:03:33;99552.91;;;22.75;100.00
26087;BME280;13851;43.434;28.338;2023-05-17T11:08:40;99579.53;;;22.51;100.00
26087;BME280;13851;43.434;28.338;2023-05-17T11:11:10;99560.16;;;22.71;100.00
26087;BME280;13851;43.434;28.338;2023-05-17T11:13:51;99541.72;;;22.70;100.00
26087;BME280;13851;43.434;28.338;2023-05-17T11:16:20;99512.41;;;22.30;100.00
26087;BME280;13851;43.434;28.338;2023-05-17T11:18:50;99587.88;;;22.78;100.00
26087;BME280;13851;43.434;28.338;2023-05-17T11:21:17;99488.78;;;22.06;100.00
26087;BME280;13851;43.434;28.338;2023-05-17T11:23:44;99499.44;;;22.14;100.00
26087;BME280;13851;43.434;28.338;2023-05-17T11:26:28;99450.22;;;21.66;100.00
26087;BME280;13851;43.434;28.338;2023-05-17T11:29:16;99564.31;;;22.31;100.00
26087;BME280;13851;43.434;28.338;2023-05-17T11:31:43;99008.91;;;18.88;100.00
26087;BME280;13851;43.434;28.338;2023-05-17T11:34:11;99564.78;;;22.18;100.00
26087;BME280;13851;43.434;28.338;2023-05-17T11:36:52;99556.81;;;22.05;100.00
26087;BME280;13851;43.434;28.338;2023-05-17T11:39:21;99557.66;;;21.78;100.00
26087;BME280;13851;43.434;28.338;2023-05-17T11:41:48;99505.53;;;21.52;100.00
26087;BME280;13851;43.434;28.338;2023-05-17T11:47:04;99238.63;;;20.14;100.00
26087;BME280;13851;43.434;28.338;2023-05-17T11:49:32;99548.56;;;22.15;100.00
26087;BME280;13851;43.434;28.338;2023-05-17T11:51:58;99272.03;;;20.41;100.00
26087;BME280;13851;43.434;28.338;2023-05-17T11:54:25;99515.84;;;21.78;100.00
26087;BME280;13851;43.434;28.338;2023-05-17T11:56:53;99547.44;;;22.11;100.00
26087;BME280;13851;43.434;28.338;2023-05-17T11:59:20;99282.72;;;20.49;100.00
26087;BME280;13851;43.434;28.338;2023-05-17T12:01:47;99535.22;;;21.95;100.00
26087;BME280;13851;43.434;28.338;2023-05-17T12:04:21;99479.19;;;21.65;100.00
26087;BME280;13851;43.434;28.338;2023-05-17T12:06:47;99426.66;;;21.24;100.00
26087;BME280;13851;43.434;28.338;2023-05-17T12:09:15;99222.00;;;19.75;100.00
26087;BME280;13851;43.434;28.338;2023-05-17T12:11:42;99533.63;;;21.72;100.00
26087;BME280;13851;43.434;28.338;2023-05-17T12:14:07;99147.50;;;19.33;100.00
26087;BME280;13851;43.434;28.338;2023-05-17T12:16:35;99446.06;;;20.92;100.00
26087;BME280;13851;43.434;28.338;2023-05-17T12:19:01;99205.13;;;19.04;100.00
26087;BME280;13851;43.434;28.338;2023-05-17T12:21:26;99548.97;;;21.04;100.00
26087;BME280;13851;43.434;28.338;2023-05-17T12:23:52;99543.00;;;20.95;100.00
26087;BME280;13851;43.434;28.338;2023-05-17T12:26:19;99554.47;;;20.99;100.00
26087;BME280;13851;43.434;28.338;2023-05-17T12:28:59;99620.72;;;20.97;100.00
26087;BME280;13851;43.434;28.338;2023-05-17T12:31:31;99531.88;;;20.95;100.00
26087;BME280;13851;43.434;28.338;2023-05-17T12:33:58;99515.94;;;20.91;100.00
26087;BME280;13851;43.434;28.338;2023-05-17T12:36:27;99489.06;;;20.58;100.00
26087;BME280;13851;43.434;28.338;2023-05-17T12:38:54;99517.16;;;21.00;100.00
26087;BME280;13851;43.434;28.338;2023-05-17T12:41:21;99523.38;;;20.85;100.00
26087;BME280;13851;43.434;28.338;2023-05-17T12:43:48;99140.47;;;18.70;100.00
26087;BME280;13851;43.434;28.338;2023-05-17T12:46:16;99285.00;;;19.53;100.00
26087;BME280;13851;43.434;28.338;2023-05-17T12:48:43;99524.47;;;21.06;100.00
26087;BME280;13851;43.434;28.338;2023-05-17T12:51:10;99213.00;;;19.12;100.00
26087;BME280;13851;43.434;28.338;2023-05-17T12:53:37;99012.94;;;17.91;100.00
26087;BME280;13851;43.434;28.338;2023-05-17T12:56:04;99275.84;;;19.52;100.00
26087;BME280;13851;43.434;28.338;2023-05-17T12:58:30;99467.22;;;20.71;100.00
26087;BME280;13851;43.434;28.338;2023-05-17T13:01:00;99445.09;;;20.60;100.00